LLHA/HFA METAR and TAF weather

Enter ICAO airport designator
Station Type Date Time Source
LLHA METAR 2019/11/13 17:50 UTC NOAA

LLHA 131750Z 15010KT CAVOK 28/12 Q1011


Station Type Date Time Source
LLHA Decoded METAR 2019/11/13 17:50 UTC NOAA

Sde-Haifa Haifa, Israel (LLHA) 32-48N 035-02E 8M
Nov 13, 2019 - 12:50 PM EST / 2019.11.13 1750 UTC
Wind: from the SSE (150 degrees) at 12 MPH (10 KT):0
Visibility: greater than 7 mile(s):0
Temperature: 82 F (28 C)
Dew Point: 53 F (12 C)
Relative Humidity: 37%
Pressure (altimeter): 29.85 in. Hg (1011 hPa)
ob: LLHA 131750Z 15010KT CAVOK 28/12 Q1011
cycle: 18

Station Type Date Time Source
LLHA TAF 2019/11/13 18:00 UTC NOAA

TAF LLHA 131704Z 1318/1418 12010KT CAVOK PROB30 1321/1410 12020G30KT
BECMG 1410/1412 32008KT TX31/1412Z TN23/1404Z

Example: see airport list